sensor_id;sensor_type;location;lat;lon;timestamp;P1;durP1;ratioP1;P2;durP2;ratioP2
61675;SDS011;47574;52.090;5.244;2023-09-19T00:02:42;8.4;;;2.6;;
61675;SDS011;47574;52.090;5.244;2023-09-19T00:04:19;7.9;;;2.0;;
61675;SDS011;47574;52.090;5.244;2023-09-19T00:05:55;5.7;;;1.8;;
61675;SDS011;47574;52.090;5.244;2023-09-19T00:09:09;5.3;;;1.7;;
61675;SDS011;47574;52.090;5.244;2023-09-19T00:10:45;4.1;;;1.4;;
61675;SDS011;47574;52.090;5.244;2023-09-19T00:12:21;6.1;;;2.0;;
61675;SDS011;47574;52.090;5.244;2023-09-19T00:15:36;5.3;;;1.7;;
61675;SDS011;47574;52.090;5.244;2023-09-19T00:17:14;8.5;;;2.0;;
61675;SDS011;47574;52.090;5.244;2023-09-19T00:18:50;6.8;;;1.9;;
61675;SDS011;47574;52.090;5.244;2023-09-19T00:20:27;6.9;;;1.5;;
61675;SDS011;47574;52.090;5.244;2023-09-19T00:23:39;7.7;;;1.6;;
61675;SDS011;47574;52.090;5.244;2023-09-19T00:25:15;4.1;;;1.4;;
61675;SDS011;47574;52.090;5.244;2023-09-19T00:26:51;5.3;;;1.8;;
61675;SDS011;47574;52.090;5.244;2023-09-19T00:30:04;7.0;;;1.7;;
61675;SDS011;47574;52.090;5.244;2023-09-19T00:31:42;6.6;;;1.7;;
61675;SDS011;47574;52.090;5.244;2023-09-19T00:33:18;3.6;;;1.4;;
61675;SDS011;47574;52.090;5.244;2023-09-19T00:36:31;5.2;;;1.6;;
61675;SDS011;47574;52.090;5.244;2023-09-19T00:38:07;6.8;;;1.8;;
61675;SDS011;47574;52.090;5.244;2023-09-19T00:39:43;5.7;;;1.9;;
61675;SDS011;47574;52.090;5.244;2023-09-19T00:41:19;4.8;;;1.5;;
61675;SDS011;47574;52.090;5.244;2023-09-19T00:44:33;6.1;;;1.7;;
61675;SDS011;47574;52.090;5.244;2023-09-19T00:46:09;5.11;;;1.7;;
61675;SDS011;47574;52.090;5.244;2023-09-19T00:47:47;5.2;;;1.9;;
61675;SDS011;47574;52.090;5.244;2023-09-19T00:51:02;5.3;;;1.5;;
61675;SDS011;47574;52.090;5.244;2023-09-19T00:52:40;5.3;;;1.5;;
61675;SDS011;47574;52.090;5.244;2023-09-19T00:54:18;7.5;;;1.7;;
61675;SDS011;47574;52.090;5.244;2023-09-19T00:57:31;6.5;;;1.5;;
61675;SDS011;47574;52.090;5.244;2023-09-19T00:59:08;7.1;;;1.6;;
61675;SDS011;47574;52.090;5.244;2023-09-19T01:00:44;4.91;;;1.4;;
61675;SDS011;47574;52.090;5.244;2023-09-19T01:02:21;5.3;;;1.6;;
61675;SDS011;47574;52.090;5.244;2023-09-19T01:05:33;6.7;;;1.9;;
61675;SDS011;47574;52.090;5.244;2023-09-19T01:07:09;8.0;;;1.8;;
61675;SDS011;47574;52.090;5.244;2023-09-19T01:08:45;6.6;;;1.6;;
61675;SDS011;47574;52.090;5.244;2023-09-19T01:11:58;5.0;;;1.7;;
61675;SDS011;47574;52.090;5.244;2023-09-19T01:13:48;7.1;;;1.7;;
61675;SDS011;47574;52.090;5.244;2023-09-19T01:15:38;4.91;;;1.7;;
61675;SDS011;47574;52.090;5.244;2023-09-19T01:17:27;4.61;;;1.7;;
61675;SDS011;47574;52.090;5.244;2023-09-19T01:19:24;5.9;;;1.7;;
61675;SDS011;47574;52.090;5.244;2023-09-19T01:21:33;10.21;;;1.9;;
61675;SDS011;47574;52.090;5.244;2023-09-19T01:23:21;4.2;;;1.5;;
61675;SDS011;47574;52.090;5.244;2023-09-19T01:27:17;7.8;;;1.4;;
61675;SDS011;47574;52.090;5.244;2023-09-19T01:29:17;6.3;;;1.5;;
61675;SDS011;47574;52.090;5.244;2023-09-19T01:31:09;6.2;;;1.6;;
61675;SDS011;47574;52.090;5.244;2023-09-19T01:32:47;5.11;;;1.5;;
61675;SDS011;47574;52.090;5.244;2023-09-19T01:34:25;8.2;;;1.8;;
61675;SDS011;47574;52.090;5.244;2023-09-19T01:36:01;6.9;;;1.7;;
61675;SDS011;47574;52.090;5.244;2023-09-19T01:39:13;7.2;;;1.5;;
61675;SDS011;47574;52.090;5.244;2023-09-19T01:40:52;4.8;;;1.7;;
61675;SDS011;47574;52.090;5.244;2023-09-19T01:42:40;4.61;;;1.6;;
61675;SDS011;47574;52.090;5.244;2023-09-19T01:44:22;7.6;;;2.0;;
61675;SDS011;47574;52.090;5.244;2023-09-19T01:46:16;4.3;;;1.2;;
61675;SDS011;47574;52.090;5.244;2023-09-19T01:50:01;6.5;;;1.5;;
61675;SDS011;47574;52.090;5.244;2023-09-19T01:51:53;7.2;;;1.5;;
61675;SDS011;47574;52.090;5.244;2023-09-19T01:53:39;4.91;;;1.5;;
61675;SDS011;47574;52.090;5.244;2023-09-19T01:55:19;5.4;;;1.6;;
61675;SDS011;47574;52.090;5.244;2023-09-19T01:56:59;6.9;;;1.8;;
61675;SDS011;47574;52.090;5.244;2023-09-19T01:58:42;6.9;;;1.5;;
61675;SDS011;47574;52.090;5.244;2023-09-19T02:02:04;6.8;;;1.6;;
61675;SDS011;47574;52.090;5.244;2023-09-19T02:03:42;8.1;;;1.8;;
61675;SDS011;47574;52.090;5.244;2023-09-19T02:05:22;9.31;;;1.9;;
61675;SDS011;47574;52.090;5.244;2023-09-19T02:08:36;5.4;;;1.5;;
61675;SDS011;47574;52.090;5.244;2023-09-19T02:10:13;6.5;;;1.7;;
61675;SDS011;47574;52.090;5.244;2023-09-19T02:11:49;5.3;;;1.5;;
61675;SDS011;47574;52.090;5.244;2023-09-19T02:13:25;6.1;;;1.6;;
61675;SDS011;47574;52.090;5.244;2023-09-19T02:16:38;8.6;;;1.5;;
61675;SDS011;47574;52.090;5.244;2023-09-19T02:18:14;6.6;;;1.8;;
61675;SDS011;47574;52.090;5.244;2023-09-19T02:19:50;6.9;;;1.8;;
61675;SDS011;47574;52.090;5.244;2023-09-19T02:23:02;5.5;;;1.9;;
61675;SDS011;47574;52.090;5.244;2023-09-19T02:24:39;9.31;;;1.9;;
61675;SDS011;47574;52.090;5.244;2023-09-19T02:26:15;6.0;;;1.7;;
61675;SDS011;47574;52.090;5.244;2023-09-19T02:29:27;10.3;;;1.8;;
61675;SDS011;47574;52.090;5.244;2023-09-19T02:31:03;7.3;;;2.31;;
61675;SDS011;47574;52.090;5.244;2023-09-19T02:32:40;7.9;;;1.9;;
61675;SDS011;47574;52.090;5.244;2023-09-19T02:34:16;7.5;;;2.5;;
61675;SDS011;47574;52.090;5.244;2023-09-19T02:37:31;9.81;;;2.1;;
61675;SDS011;47574;52.090;5.244;2023-09-19T02:39:07;9.1;;;2.4;;
61675;SDS011;47574;52.090;5.244;2023-09-19T02:40:43;8.81;;;2.1;;
61675;SDS011;47574;52.090;5.244;2023-09-19T02:43:55;7.9;;;2.5;;
61675;SDS011;47574;52.090;5.244;2023-09-19T02:45:31;10.8;;;2.21;;
61675;SDS011;47574;52.090;5.244;2023-09-19T02:47:07;8.31;;;2.1;;
61675;SDS011;47574;52.090;5.244;2023-09-19T02:50:20;12.6;;;2.6;;
61675;SDS011;47574;52.090;5.244;2023-09-19T02:51:56;8.31;;;2.5;;
61675;SDS011;47574;52.090;5.244;2023-09-19T02:53:32;12.2;;;2.7;;
61675;SDS011;47574;52.090;5.244;2023-09-19T02:56:44;11.9;;;2.7;;
61675;SDS011;47574;52.090;5.244;2023-09-19T02:58:20;8.0;;;2.4;;
61675;SDS011;47574;52.090;5.244;2023-09-19T02:59:56;14.2;;;2.6;;
61675;SDS011;47574;52.090;5.244;2023-09-19T03:01:32;9.6;;;2.31;;
61675;SDS011;47574;52.090;5.244;2023-09-19T03:04:45;12.3;;;2.6;;
61675;SDS011;47574;52.090;5.244;2023-09-19T03:06:21;9.5;;;2.5;;
61675;SDS011;47574;52.090;5.244;2023-09-19T03:07:57;7.9;;;2.4;;
61675;SDS011;47574;52.090;5.244;2023-09-19T03:11:09;10.4;;;2.4;;
61675;SDS011;47574;52.090;5.244;2023-09-19T03:12:45;7.0;;;2.5;;
61675;SDS011;47574;52.090;5.244;2023-09-19T03:14:21;9.9;;;2.31;;
61675;SDS011;47574;52.090;5.244;2023-09-19T03:17:34;8.31;;;2.21;;
61675;SDS011;47574;52.090;5.244;2023-09-19T03:19:09;8.1;;;2.21;;
61675;SDS011;47574;52.090;5.244;2023-09-19T03:20:51;11.2;;;2.5;;
61675;SDS011;47574;52.090;5.244;2023-09-19T03:22:28;8.81;;;2.5;;
61675;SDS011;47574;52.090;5.244;2023-09-19T03:25:40;10.0;;;2.9;;
61675;SDS011;47574;52.090;5.244;2023-09-19T03:27:16;10.9;;;2.4;;
61675;SDS011;47574;52.090;5.244;2023-09-19T03:28:52;7.2;;;2.1;;
61675;SDS011;47574;52.090;5.244;2023-09-19T03:32:05;9.31;;;2.5;;
61675;SDS011;47574;52.090;5.244;2023-09-19T03:33:41;9.1;;;2.5;;
61675;SDS011;47574;52.090;5.244;2023-09-19T03:35:17;10.1;;;2.6;;
61675;SDS011;47574;52.090;5.244;2023-09-19T03:38:31;9.5;;;2.5;;
61675;SDS011;47574;52.090;5.244;2023-09-19T03:40:08;8.1;;;2.1;;
61675;SDS011;47574;52.090;5.244;2023-09-19T03:41:45;10.3;;;2.6;;
61675;SDS011;47574;52.090;5.244;2023-09-19T03:43:21;8.9;;;2.8;;
61675;SDS011;47574;52.090;5.244;2023-09-19T03:46:33;11.0;;;2.31;;
61675;SDS011;47574;52.090;5.244;2023-09-19T03:48:09;9.9;;;2.21;;
61675;SDS011;47574;52.090;5.244;2023-09-19T03:49:45;8.9;;;2.31;;
61675;SDS011;47574;52.090;5.244;2023-09-19T03:52:58;8.4;;;2.31;;
61675;SDS011;47574;52.090;5.244;2023-09-19T03:54:34;9.21;;;2.5;;
61675;SDS011;47574;52.090;5.244;2023-09-19T03:56:10;10.0;;;2.4;;
61675;SDS011;47574;52.090;5.244;2023-09-19T03:59:24;9.71;;;2.5;;
61675;SDS011;47574;52.090;5.244;2023-09-19T04:01:00;8.0;;;2.0;;
61675;SDS011;47574;52.090;5.244;2023-09-19T04:02:37;8.31;;;2.31;;
61675;SDS011;47574;52.090;5.244;2023-09-19T04:04:13;11.4;;;2.31;;
61675;SDS011;47574;52.090;5.244;2023-09-19T04:07:25;9.0;;;2.21;;
61675;SDS011;47574;52.090;5.244;2023-09-19T04:09:02;8.71;;;2.4;;
61675;SDS011;47574;52.090;5.244;2023-09-19T04:10:40;9.1;;;2.5;;
61675;SDS011;47574;52.090;5.244;2023-09-19T04:13:54;9.0;;;2.31;;
61675;SDS011;47574;52.090;5.244;2023-09-19T04:15:30;11.6;;;2.4;;
61675;SDS011;47574;52.090;5.244;2023-09-19T04:17:06;6.9;;;2.0;;
61675;SDS011;47574;52.090;5.244;2023-09-19T04:20:18;8.0;;;2.31;;
61675;SDS011;47574;52.090;5.244;2023-09-19T04:21:54;9.0;;;2.4;;
61675;SDS011;47574;52.090;5.244;2023-09-19T04:23:30;8.9;;;2.31;;
61675;SDS011;47574;52.090;5.244;2023-09-19T04:26:43;10.6;;;2.7;;
61675;SDS011;47574;52.090;5.244;2023-09-19T04:28:19;6.2;;;2.21;;
61675;SDS011;47574;52.090;5.244;2023-09-19T04:29:55;6.1;;;2.4;;
61675;SDS011;47574;52.090;5.244;2023-09-19T04:31:31;11.0;;;2.4;;
61675;SDS011;47574;52.090;5.244;2023-09-19T04:34:43;10.1;;;2.1;;
61675;SDS011;47574;52.090;5.244;2023-09-19T04:36:19;9.21;;;2.6;;
61675;SDS011;47574;52.090;5.244;2023-09-19T04:37:55;6.9;;;2.31;;
61675;SDS011;47574;52.090;5.244;2023-09-19T04:41:08;8.6;;;2.21;;
61675;SDS011;47574;52.090;5.244;2023-09-19T04:42:44;10.9;;;3.1;;
61675;SDS011;47574;52.090;5.244;2023-09-19T04:44:20;7.4;;;2.0;;
61675;SDS011;47574;52.090;5.244;2023-09-19T04:47:32;6.2;;;1.9;;
61675;SDS011;47574;52.090;5.244;2023-09-19T04:49:08;6.6;;;2.0;;
61675;SDS011;47574;52.090;5.244;2023-09-19T04:50:44;6.8;;;2.0;;
61675;SDS011;47574;52.090;5.244;2023-09-19T04:52:20;9.0;;;2.5;;
61675;SDS011;47574;52.090;5.244;2023-09-19T04:55:33;9.31;;;2.0;;
61675;SDS011;47574;52.090;5.244;2023-09-19T04:57:09;9.6;;;2.5;;
61675;SDS011;47574;52.090;5.244;2023-09-19T04:58:45;7.7;;;2.0;;
61675;SDS011;47574;52.090;5.244;2023-09-19T05:01:58;6.7;;;2.4;;
61675;SDS011;47574;52.090;5.244;2023-09-19T05:03:34;7.6;;;2.4;;
61675;SDS011;47574;52.090;5.244;2023-09-19T05:05:10;6.5;;;2.31;;
61675;SDS011;47574;52.090;5.244;2023-09-19T05:08:23;9.5;;;2.7;;
61675;SDS011;47574;52.090;5.244;2023-09-19T05:09:59;8.4;;;2.4;;
61675;SDS011;47574;52.090;5.244;2023-09-19T05:11:36;8.71;;;2.6;;
61675;SDS011;47574;52.090;5.244;2023-09-19T05:14:48;7.2;;;2.5;;
61675;SDS011;47574;52.090;5.244;2023-09-19T05:16:24;7.1;;;2.7;;
61675;SDS011;47574;52.090;5.244;2023-09-19T05:19:36;9.0;;;2.6;;
61675;SDS011;47574;52.090;5.244;2023-09-19T05:22:48;7.6;;;2.6;;
61675;SDS011;47574;52.090;5.244;2023-09-19T05:24:24;7.8;;;2.21;;
61675;SDS011;47574;52.090;5.244;2023-09-19T05:26:00;9.5;;;2.31;;
61675;SDS011;47574;52.090;5.244;2023-09-19T05:29:12;5.8;;;2.31;;
61675;SDS011;47574;52.090;5.244;2023-09-19T05:30:48;11.0;;;2.4;;
61675;SDS011;47574;52.090;5.244;2023-09-19T05:32:24;8.6;;;2.21;;
61675;SDS011;47574;52.090;5.244;2023-09-19T05:35:36;8.4;;;2.8;;
61675;SDS011;47574;52.090;5.244;2023-09-19T05:37:12;8.2;;;2.31;;
61675;SDS011;47574;52.090;5.244;2023-09-19T05:38:48;8.1;;;2.5;;
61675;SDS011;47574;52.090;5.244;2023-09-19T05:42:02;7.5;;;2.31;;
61675;SDS011;47574;52.090;5.244;2023-09-19T05:43:38;10.9;;;2.5;;
61675;SDS011;47574;52.090;5.244;2023-09-19T05:45:14;7.5;;;2.4;;
61675;SDS011;47574;52.090;5.244;2023-09-19T05:46:50;9.1;;;2.21;;
61675;SDS011;47574;52.090;5.244;2023-09-19T05:50:02;7.8;;;2.31;;
61675;SDS011;47574;52.090;5.244;2023-09-19T05:51:38;7.8;;;2.31;;
61675;SDS011;47574;52.090;5.244;2023-09-19T05:53:14;6.7;;;2.5;;
61675;SDS011;47574;52.090;5.244;2023-09-19T05:56:26;9.6;;;2.6;;
61675;SDS011;47574;52.090;5.244;2023-09-19T05:58:03;6.9;;;2.31;;
61675;SDS011;47574;52.090;5.244;2023-09-19T05:59:39;9.0;;;2.5;;
61675;SDS011;47574;52.090;5.244;2023-09-19T06:02:51;8.9;;;2.4;;
61675;SDS011;47574;52.090;5.244;2023-09-19T06:04:27;7.3;;;2.4;;
61675;SDS011;47574;52.090;5.244;2023-09-19T06:06:03;11.0;;;2.5;;
61675;SDS011;47574;52.090;5.244;2023-09-19T06:07:39;9.0;;;2.4;;
61675;SDS011;47574;52.090;5.244;2023-09-19T06:10:51;8.71;;;2.4;;
61675;SDS011;47574;52.090;5.244;2023-09-19T06:12:27;8.2;;;2.5;;
61675;SDS011;47574;52.090;5.244;2023-09-19T06:14:04;7.9;;;2.8;;
61675;SDS011;47574;52.090;5.244;2023-09-19T06:17:16;8.71;;;3.0;;
61675;SDS011;47574;52.090;5.244;2023-09-19T06:18:52;8.71;;;2.7;;
61675;SDS011;47574;52.090;5.244;2023-09-19T06:20:28;10.7;;;2.6;;
61675;SDS011;47574;52.090;5.244;2023-09-19T06:23:40;10.5;;;2.5;;
61675;SDS011;47574;52.090;5.244;2023-09-19T06:25:16;8.31;;;2.5;;
61675;SDS011;47574;52.090;5.244;2023-09-19T06:26:53;7.0;;;2.31;;
61675;SDS011;47574;52.090;5.244;2023-09-19T06:30:06;10.5;;;3.0;;
61675;SDS011;47574;52.090;5.244;2023-09-19T06:31:43;9.1;;;2.4;;
61675;SDS011;47574;52.090;5.244;2023-09-19T06:33:19;7.9;;;2.4;;
61675;SDS011;47574;52.090;5.244;2023-09-19T06:34:55;11.5;;;2.8;;
61675;SDS011;47574;52.090;5.244;2023-09-19T06:38:07;8.81;;;2.5;;
61675;SDS011;47574;52.090;5.244;2023-09-19T06:39:43;10.7;;;2.6;;
61675;SDS011;47574;52.090;5.244;2023-09-19T06:41:19;8.6;;;2.6;;
61675;SDS011;47574;52.090;5.244;2023-09-19T06:44:31;9.31;;;2.8;;
61675;SDS011;47574;52.090;5.244;2023-09-19T06:46:07;10.3;;;3.0;;
61675;SDS011;47574;52.090;5.244;2023-09-19T06:47:44;9.31;;;2.5;;
61675;SDS011;47574;52.090;5.244;2023-09-19T06:50:57;11.3;;;2.9;;
61675;SDS011;47574;52.090;5.244;2023-09-19T06:52:33;7.9;;;2.7;;
61675;SDS011;47574;52.090;5.244;2023-09-19T06:54:09;11.0;;;2.8;;
61675;SDS011;47574;52.090;5.244;2023-09-19T06:57:21;11.8;;;3.1;;
61675;SDS011;47574;52.090;5.244;2023-09-19T06:58:57;8.5;;;2.6;;
61675;SDS011;47574;52.090;5.244;2023-09-19T07:00:33;9.4;;;2.5;;
61675;SDS011;47574;52.090;5.244;2023-09-19T07:02:09;8.9;;;2.9;;
61675;SDS011;47574;52.090;5.244;2023-09-19T07:05:22;10.21;;;3.0;;
61675;SDS011;47574;52.090;5.244;2023-09-19T07:06:58;9.4;;;2.8;;
61675;SDS011;47574;52.090;5.244;2023-09-19T07:08:34;13.1;;;2.9;;
61675;SDS011;47574;52.090;5.244;2023-09-19T07:11:46;10.3;;;2.8;;
61675;SDS011;47574;52.090;5.244;2023-09-19T07:13:22;11.1;;;2.7;;
61675;SDS011;47574;52.090;5.244;2023-09-19T07:14:58;9.6;;;2.7;;
61675;SDS011;47574;52.090;5.244;2023-09-19T07:18:10;10.4;;;2.8;;
61675;SDS011;47574;52.090;5.244;2023-09-19T07:19:47;11.5;;;2.8;;
61675;SDS011;47574;52.090;5.244;2023-09-19T07:21:23;10.7;;;2.7;;
61675;SDS011;47574;52.090;5.244;2023-09-19T07:22:59;9.71;;;3.1;;
61675;SDS011;47574;52.090;5.244;2023-09-19T07:26:11;16.7;;;3.2;;
61675;SDS011;47574;52.090;5.244;2023-09-19T07:27:47;13.4;;;2.7;;
61675;SDS011;47574;52.090;5.244;2023-09-19T07:29:23;9.9;;;2.8;;
61675;SDS011;47574;52.090;5.244;2023-09-19T07:32:38;13.7;;;2.9;;
61675;SDS011;47574;52.090;5.244;2023-09-19T07:34:13;8.2;;;2.9;;
61675;SDS011;47574;52.090;5.244;2023-09-19T07:35:50;13.0;;;3.0;;
61675;SDS011;47574;52.090;5.244;2023-09-19T07:39:02;10.1;;;2.8;;
61675;SDS011;47574;52.090;5.244;2023-09-19T07:40:38;10.1;;;2.8;;
61675;SDS011;47574;52.090;5.244;2023-09-19T07:42:15;12.5;;;3.2;;
61675;SDS011;47574;52.090;5.244;2023-09-19T07:45:27;9.71;;;2.7;;
61675;SDS011;47574;52.090;5.244;2023-09-19T07:47:03;13.7;;;3.0;;
61675;SDS011;47574;52.090;5.244;2023-09-19T07:48:39;10.3;;;3.2;;
61675;SDS011;47574;52.090;5.244;2023-09-19T07:50:16;9.0;;;2.8;;
61675;SDS011;47574;52.090;5.244;2023-09-19T07:53:29;12.7;;;3.2;;
61675;SDS011;47574;52.090;5.244;2023-09-19T07:55:05;11.9;;;3.1;;
61675;SDS011;47574;52.090;5.244;2023-09-19T07:56:42;10.21;;;3.0;;
61675;SDS011;47574;52.090;5.244;2023-09-19T07:59:54;14.8;;;2.9;;
61675;SDS011;47574;52.090;5.244;2023-09-19T08:01:30;12.6;;;3.1;;
61675;SDS011;47574;52.090;5.244;2023-09-19T08:03:06;10.6;;;2.9;;
61675;SDS011;47574;52.090;5.244;2023-09-19T08:06:18;12.1;;;2.9;;
61675;SDS011;47574;52.090;5.244;2023-09-19T08:07:55;10.9;;;3.2;;
61675;SDS011;47574;52.090;5.244;2023-09-19T08:09:31;13.2;;;3.0;;
61675;SDS011;47574;52.090;5.244;2023-09-19T08:11:07;10.1;;;2.9;;
61675;SDS011;47574;52.090;5.244;2023-09-19T08:14:19;9.81;;;2.7;;
61675;SDS011;47574;52.090;5.244;2023-09-19T08:15:55;9.6;;;2.6;;
61675;SDS011;47574;52.090;5.244;2023-09-19T08:17:33;12.4;;;3.0;;
61675;SDS011;47574;52.090;5.244;2023-09-19T08:20:48;12.3;;;3.2;;
61675;SDS011;47574;52.090;5.244;2023-09-19T08:22:25;10.7;;;2.9;;
61675;SDS011;47574;52.090;5.244;2023-09-19T08:24:02;13.2;;;3.0;;
61675;SDS011;47574;52.090;5.244;2023-09-19T08:27:14;10.4;;;2.8;;
61675;SDS011;47574;52.090;5.244;2023-09-19T08:28:50;12.6;;;3.1;;
61675;SDS011;47574;52.090;5.244;2023-09-19T08:30:26;10.21;;;2.8;;
61675;SDS011;47574;52.090;5.244;2023-09-19T08:32:02;11.2;;;3.2;;
61675;SDS011;47574;52.090;5.244;2023-09-19T08:35:15;13.7;;;3.1;;
61675;SDS011;47574;52.090;5.244;2023-09-19T08:36:51;11.3;;;3.0;;
61675;SDS011;47574;52.090;5.244;2023-09-19T08:38:28;13.0;;;3.5;;
61675;SDS011;47574;52.090;5.244;2023-09-19T08:41:42;11.6;;;2.9;;
61675;SDS011;47574;52.090;5.244;2023-09-19T08:43:18;14.6;;;3.2;;
61675;SDS011;47574;52.090;5.244;2023-09-19T08:44:57;11.7;;;3.1;;
61675;SDS011;47574;52.090;5.244;2023-09-19T08:48:20;13.1;;;3.2;;
61675;SDS011;47574;52.090;5.244;2023-09-19T08:50:03;12.4;;;3.4;;
61675;SDS011;47574;52.090;5.244;2023-09-19T08:51:46;12.2;;;3.4;;
61675;SDS011;47574;52.090;5.244;2023-09-19T08:53:36;10.8;;;3.0;;
61675;SDS011;47574;52.090;5.244;2023-09-19T08:55:17;12.8;;;3.1;;
61675;SDS011;47574;52.090;5.244;2023-09-19T08:58:38;14.4;;;3.3;;
61675;SDS011;47574;52.090;5.244;2023-09-19T09:00:27;15.4;;;3.1;;
61675;SDS011;47574;52.090;5.244;2023-09-19T09:02:04;11.8;;;2.6;;
61675;SDS011;47574;52.090;5.244;2023-09-19T09:03:44;9.71;;;3.3;;
61675;SDS011;47574;52.090;5.244;2023-09-19T09:07:00;10.21;;;2.8;;
61675;SDS011;47574;52.090;5.244;2023-09-19T09:08:38;9.9;;;2.7;;
61675;SDS011;47574;52.090;5.244;2023-09-19T09:10:14;10.1;;;2.6;;
61675;SDS011;47574;52.090;5.244;2023-09-19T09:11:51;11.5;;;2.8;;
61675;SDS011;47574;52.090;5.244;2023-09-19T09:15:06;10.5;;;2.7;;
61675;SDS011;47574;52.090;5.244;2023-09-19T09:16:43;13.0;;;3.2;;
61675;SDS011;47574;52.090;5.244;2023-09-19T09:18:19;12.1;;;2.7;;
61675;SDS011;47574;52.090;5.244;2023-09-19T09:21:31;13.9;;;3.2;;
61675;SDS011;47574;52.090;5.244;2023-09-19T09:23:07;11.6;;;2.5;;
61675;SDS011;47574;52.090;5.244;2023-09-19T09:24:51;10.6;;;2.9;;
61675;SDS011;47574;52.090;5.244;2023-09-19T09:26:43;9.81;;;2.6;;
61675;SDS011;47574;52.090;5.244;2023-09-19T09:29:58;9.4;;;2.9;;
61675;SDS011;47574;52.090;5.244;2023-09-19T09:31:34;17.3;;;3.1;;
61675;SDS011;47574;52.090;5.244;2023-09-19T09:33:10;12.6;;;2.8;;
61675;SDS011;47574;52.090;5.244;2023-09-19T09:34:49;10.3;;;3.0;;
61675;SDS011;47574;52.090;5.244;2023-09-19T09:38:14;14.5;;;3.1;;
61675;SDS011;47574;52.090;5.244;2023-09-19T09:39:52;11.4;;;2.9;;
61675;SDS011;47574;52.090;5.244;2023-09-19T09:41:35;14.0;;;3.6;;
61675;SDS011;47574;52.090;5.244;2023-09-19T09:43:24;9.5;;;2.4;;
61675;SDS011;47574;52.090;5.244;2023-09-19T09:46:56;12.1;;;2.9;;
61675;SDS011;47574;52.090;5.244;2023-09-19T09:48:32;12.1;;;3.2;;
61675;SDS011;47574;52.090;5.244;2023-09-19T09:50:08;10.9;;;2.8;;
61675;SDS011;47574;52.090;5.244;2023-09-19T09:51:45;11.8;;;3.0;;
61675;SDS011;47574;52.090;5.244;2023-09-19T09:55:03;11.5;;;2.9;;
61675;SDS011;47574;52.090;5.244;2023-09-19T09:56:55;12.3;;;3.2;;
61675;SDS011;47574;52.090;5.244;2023-09-19T09:58:33;12.8;;;2.8;;
61675;SDS011;47574;52.090;5.244;2023-09-19T10:00:10;12.8;;;2.8;;
61675;SDS011;47574;52.090;5.244;2023-09-19T10:03:30;12.0;;;2.5;;
61675;SDS011;47574;52.090;5.244;2023-09-19T10:05:11;13.9;;;2.7;;
61675;SDS011;47574;52.090;5.244;2023-09-19T10:06:49;9.9;;;2.7;;
61675;SDS011;47574;52.090;5.244;2023-09-19T10:08:27;11.0;;;2.7;;
61675;SDS011;47574;52.090;5.244;2023-09-19T10:11:41;12.0;;;2.5;;
61675;SDS011;47574;52.090;5.244;2023-09-19T10:13:19;11.9;;;2.31;;
61675;SDS011;47574;52.090;5.244;2023-09-19T10:14:55;9.6;;;2.31;;
61675;SDS011;47574;52.090;5.244;2023-09-19T10:18:16;12.6;;;2.8;;
61675;SDS011;47574;52.090;5.244;2023-09-19T10:19:56;10.1;;;2.6;;
61675;SDS011;47574;52.090;5.244;2023-09-19T10:21:32;9.5;;;2.4;;
61675;SDS011;47574;52.090;5.244;2023-09-19T10:23:10;10.7;;;2.6;;
61675;SDS011;47574;52.090;5.244;2023-09-19T10:26:26;10.5;;;2.4;;
61675;SDS011;47574;52.090;5.244;2023-09-19T10:28:03;9.9;;;2.0;;
61675;SDS011;47574;52.090;5.244;2023-09-19T10:29:41;11.5;;;2.5;;
61675;SDS011;47574;52.090;5.244;2023-09-19T10:31:21;9.6;;;2.21;;
61675;SDS011;47574;52.090;5.244;2023-09-19T10:34:38;11.6;;;2.5;;
61675;SDS011;47574;52.090;5.244;2023-09-19T10:36:17;9.4;;;2.4;;
61675;SDS011;47574;52.090;5.244;2023-09-19T10:37:54;7.5;;;2.0;;
61675;SDS011;47574;52.090;5.244;2023-09-19T10:41:08;8.2;;;2.0;;
61675;SDS011;47574;52.090;5.244;2023-09-19T10:42:48;7.0;;;2.0;;
61675;SDS011;47574;52.090;5.244;2023-09-19T10:44:26;8.1;;;1.9;;
61675;SDS011;47574;52.090;5.244;2023-09-19T10:46:08;10.7;;;2.31;;
61675;SDS011;47574;52.090;5.244;2023-09-19T10:49:20;10.3;;;2.31;;
61675;SDS011;47574;52.090;5.244;2023-09-19T10:50:58;9.9;;;2.31;;
61675;SDS011;47574;52.090;5.244;2023-09-19T10:52:42;8.81;;;2.5;;
61675;SDS011;47574;52.090;5.244;2023-09-19T10:54:18;8.81;;;2.31;;
61675;SDS011;47574;52.090;5.244;2023-09-19T10:57:37;7.5;;;2.31;;
61675;SDS011;47574;52.090;5.244;2023-09-19T10:59:14;8.6;;;2.1;;
61675;SDS011;47574;52.090;5.244;2023-09-19T11:00:52;8.5;;;2.1;;
61675;SDS011;47574;52.090;5.244;2023-09-19T11:04:20;9.31;;;2.21;;
61675;SDS011;47574;52.090;5.244;2023-09-19T11:06:00;9.6;;;1.9;;
61675;SDS011;47574;52.090;5.244;2023-09-19T11:07:56;7.9;;;1.7;;
61675;SDS011;47574;52.090;5.244;2023-09-19T11:09:49;6.9;;;1.9;;
61675;SDS011;47574;52.090;5.244;2023-09-19T11:11:42;9.31;;;1.9;;
61675;SDS011;47574;52.090;5.244;2023-09-19T11:13:23;8.2;;;2.1;;
61675;SDS011;47574;52.090;5.244;2023-09-19T11:16:37;6.9;;;1.8;;
61675;SDS011;47574;52.090;5.244;2023-09-19T11:18:50;10.5;;;2.31;;
61675;SDS011;47574;52.090;5.244;2023-09-19T11:20:28;7.2;;;1.8;;
61675;SDS011;47574;52.090;5.244;2023-09-19T11:22:04;10.21;;;2.8;;
61675;SDS011;47574;52.090;5.244;2023-09-19T11:23:40;10.0;;;2.0;;
61675;SDS011;47574;52.090;5.244;2023-09-19T11:27:25;6.3;;;1.9;;
61675;SDS011;47574;52.090;5.244;2023-09-19T11:29:24;8.31;;;1.8;;
61675;SDS011;47574;52.090;5.244;2023-09-19T11:31:41;8.9;;;1.5;;
61675;SDS011;47574;52.090;5.244;2023-09-19T11:33:19;7.3;;;1.7;;
61675;SDS011;47574;52.090;5.244;2023-09-19T11:35:06;9.6;;;2.0;;
61675;SDS011;47574;52.090;5.244;2023-09-19T11:36:42;10.7;;;1.9;;
61675;SDS011;47574;52.090;5.244;2023-09-19T11:38:19;6.9;;;1.6;;
61675;SDS011;47574;52.090;5.244;2023-09-19T11:40:34;6.3;;;1.5;;
61675;SDS011;47574;52.090;5.244;2023-09-19T11:44:34;7.6;;;1.6;;
61675;SDS011;47574;52.090;5.244;2023-09-19T11:46:10;5.5;;;1.5;;
61675;SDS011;47574;52.090;5.244;2023-09-19T11:47:46;11.7;;;1.9;;
61675;SDS011;47574;52.090;5.244;2023-09-19T11:49:25;7.0;;;1.6;;
61675;SDS011;47574;52.090;5.244;2023-09-19T11:51:11;7.7;;;1.6;;
61675;SDS011;47574;52.090;5.244;2023-09-19T11:52:57;4.91;;;1.6;;
61675;SDS011;47574;52.090;5.244;2023-09-19T11:56:11;7.3;;;1.6;;
61675;SDS011;47574;52.090;5.244;2023-09-19T11:57:47;6.8;;;1.7;;
61675;SDS011;47574;52.090;5.244;2023-09-19T11:59:24;5.5;;;1.5;;
61675;SDS011;47574;52.090;5.244;2023-09-19T12:02:41;4.1;;;1.0;;
61675;SDS011;47574;52.090;5.244;2023-09-19T12:04:33;4.2;;;1.11;;
61675;SDS011;47574;52.090;5.244;2023-09-19T12:06:11;5.9;;;1.0;;
61675;SDS011;47574;52.090;5.244;2023-09-19T12:07:47;4.3;;;1.2;;
61675;SDS011;47574;52.090;5.244;2023-09-19T12:11:01;4.3;;;1.11;;
61675;SDS011;47574;52.090;5.244;2023-09-19T12:12:37;4.0;;;1.11;;
61675;SDS011;47574;52.090;5.244;2023-09-19T12:14:21;4.2;;;1.2;;
61675;SDS011;47574;52.090;5.244;2023-09-19T12:15:58;4.1;;;1.2;;
61675;SDS011;47574;52.090;5.244;2023-09-19T12:19:19;7.8;;;1.4;;
61675;SDS011;47574;52.090;5.244;2023-09-19T12:20:57;4.3;;;1.2;;
61675;SDS011;47574;52.090;5.244;2023-09-19T12:22:38;3.7;;;1.11;;
61675;SDS011;47574;52.090;5.244;2023-09-19T12:24:14;4.1;;;1.2;;
61675;SDS011;47574;52.090;5.244;2023-09-19T12:27:27;6.7;;;1.5;;
61675;SDS011;47574;52.090;5.244;2023-09-19T12:29:03;5.0;;;1.0;;
61675;SDS011;47574;52.090;5.244;2023-09-19T12:30:39;4.8;;;1.4;;
61675;SDS011;47574;52.090;5.244;2023-09-19T12:33:53;4.41;;;1.0;;
61675;SDS011;47574;52.090;5.244;2023-09-19T12:35:29;6.4;;;1.3;;
61675;SDS011;47574;52.090;5.244;2023-09-19T12:37:08;4.41;;;1.11;;
61675;SDS011;47574;52.090;5.244;2023-09-19T12:40:24;7.7;;;1.4;;
61675;SDS011;47574;52.090;5.244;2023-09-19T12:42:00;6.8;;;1.3;;
61675;SDS011;47574;52.090;5.244;2023-09-19T12:43:36;5.6;;;1.3;;
61675;SDS011;47574;52.090;5.244;2023-09-19T12:45:12;3.0;;;1.0;;
61675;SDS011;47574;52.090;5.244;2023-09-19T12:48:25;6.2;;;1.5;;
61675;SDS011;47574;52.090;5.244;2023-09-19T12:50:06;3.6;;;1.11;;
61675;SDS011;47574;52.090;5.244;2023-09-19T12:51:45;3.0;;;1.2;;
61675;SDS011;47574;52.090;5.244;2023-09-19T12:55:00;9.4;;;1.6;;
61675;SDS011;47574;52.090;5.244;2023-09-19T12:56:40;5.7;;;1.0;;